Аэропорт: Кневичи. Владивосток

ICAO: UHWW

METAR:
2024-04-22 21:00:00
UHWW 222100Z 20004MPS 9999 OVC012 05/03 Q1021 R25L/0///70 NOSIG RMK QFE764
TAF:
2024-04-22 20:00:00
TAF UHWW 222000Z 2221/2321 22003G08MPS 9999 OVC010 
  BECMG 2300/2302 BKN020 
  TEMPO 2303/2310 22007G12MPS